createdAt,value
2023-05-10T04:01:03.033Z,57.59
2023-05-10T04:03:47.959Z,57.50
2023-05-10T04:06:32.995Z,57.53
2023-05-10T04:09:17.649Z,58.51
2023-05-10T04:12:02.555Z,57.77
2023-05-10T04:14:47.340Z,57.76
2023-05-10T04:17:32.352Z,58.18
2023-05-10T04:20:17.329Z,57.25
2023-05-10T04:23:02.016Z,56.63
2023-05-10T04:25:46.899Z,57.14
2023-05-10T04:28:31.754Z,59.97
2023-05-10T04:31:16.804Z,59.20
2023-05-10T04:34:01.609Z,58.16
2023-05-10T04:36:46.497Z,57.08
2023-05-10T04:39:31.417Z,58.34
2023-05-10T04:42:16.248Z,58.18
2023-05-10T04:45:01.127Z,59.61
2023-05-10T04:47:46.110Z,59.74
2023-05-10T04:50:31.090Z,58.84
2023-05-10T04:53:16.033Z,59.55
2023-05-10T04:56:00.824Z,58.58
2023-05-10T04:58:45.584Z,58.57
2023-05-10T05:01:30.556Z,58.79
2023-05-10T05:04:15.260Z,59.09
2023-05-10T05:07:00.260Z,57.81
2023-05-10T05:09:45.171Z,57.43
2023-05-10T05:12:30.175Z,58.88
2023-05-10T05:15:15.054Z,58.27
2023-05-10T05:18:00.133Z,57.64
2023-05-10T05:20:45.211Z,57.31
2023-05-10T05:23:29.778Z,56.51
2023-05-10T05:26:14.608Z,55.45
2023-05-10T05:28:59.345Z,54.93
2023-05-10T05:31:44.219Z,57.12
2023-05-10T05:34:28.854Z,57.64
2023-05-10T05:37:13.640Z,55.41
2023-05-10T05:39:58.584Z,56.01
2023-05-10T05:42:43.464Z,55.84
2023-05-10T05:45:28.372Z,54.38
2023-05-10T05:48:13.278Z,52.86
2023-05-10T05:50:58.286Z,52.69
2023-05-10T05:53:43.131Z,53.10
2023-05-10T05:56:28.008Z,51.67
2023-05-10T05:59:12.813Z,51.28
2023-05-10T06:01:57.790Z,52.89
2023-05-10T06:04:44.682Z,54.45
2023-05-10T06:07:29.415Z,53.23
2023-05-10T06:10:14.398Z,53.10
2023-05-10T06:12:59.146Z,50.27
2023-05-10T06:15:44.031Z,49.04
2023-05-10T06:18:28.802Z,49.25
2023-05-10T06:21:13.702Z,50.75
2023-05-10T06:23:58.647Z,50.84
2023-05-10T06:26:43.541Z,49.58
2023-05-10T06:29:28.514Z,49.93
2023-05-10T06:32:13.346Z,50.16
2023-05-10T06:34:58.157Z,50.17
2023-05-10T06:37:42.962Z,50.98
2023-05-10T06:40:27.875Z,47.79
2023-05-10T06:43:12.643Z,53.10
2023-05-10T06:45:57.457Z,51.62
2023-05-10T06:48:42.281Z,51.33
2023-05-10T06:51:27.192Z,55.44
2023-05-10T06:54:11.971Z,56.04
2023-05-10T06:56:56.887Z,53.67
2023-05-10T06:59:41.780Z,51.49
2023-05-10T07:02:26.707Z,53.05
2023-05-10T07:05:11.588Z,54.44
2023-05-10T07:07:56.452Z,50.99
2023-05-10T07:10:41.344Z,53.41
2023-05-10T07:13:26.266Z,53.65
2023-05-10T07:16:11.183Z,53.75
2023-05-10T07:18:55.964Z,57.81
2023-05-10T07:21:40.771Z,55.06
2023-05-10T07:24:25.655Z,54.27
2023-05-10T07:27:10.676Z,54.39
2023-05-10T07:29:55.696Z,55.11
2023-05-10T07:32:40.728Z,56.97
2023-05-10T07:35:25.336Z,56.16
2023-05-10T07:38:10.169Z,53.09
2023-05-10T07:40:55.090Z,54.12
2023-05-10T07:43:39.987Z,55.28
2023-05-10T07:46:24.777Z,55.61
2023-05-10T07:49:09.573Z,56.80
2023-05-10T07:51:54.380Z,56.73
2023-05-10T07:54:39.299Z,58.56
2023-05-10T07:57:24.067Z,58.87
2023-05-10T08:00:09.040Z,56.76
2023-05-10T08:02:54.016Z,57.57
2023-05-10T08:05:38.730Z,55.61
2023-05-10T08:08:23.666Z,54.94
2023-05-10T08:11:08.649Z,52.56
2023-05-10T08:13:53.650Z,50.57
2023-05-10T08:16:38.437Z,51.17
2023-05-10T08:19:23.410Z,48.95
2023-05-10T08:22:08.270Z,48.59
2023-05-10T08:24:53.062Z,49.64
2023-05-10T08:27:38.016Z,49.69
2023-05-10T08:30:23.033Z,50.26
2023-05-10T08:33:07.832Z,47.79
2023-05-10T08:35:52.633Z,47.71
2023-05-10T08:38:37.534Z,49.48
2023-05-10T08:41:22.323Z,47.19
2023-05-10T08:44:07.259Z,46.75
2023-05-10T08:46:52.053Z,49.02
2023-05-10T08:49:36.960Z,48.48
2023-05-10T08:52:21.744Z,49.93
2023-05-10T08:55:06.541Z,47.24
2023-05-10T08:57:51.468Z,46.16
2023-05-10T09:00:36.397Z,46.18
2023-05-10T09:03:21.166Z,48.55
2023-05-10T09:06:06.049Z,48.77
2023-05-10T09:08:50.975Z,49.65
2023-05-10T09:11:35.837Z,48.46
2023-05-10T09:14:20.761Z,47.42
2023-05-10T09:17:05.703Z,48.00
2023-05-10T09:19:50.694Z,49.19
2023-05-10T09:22:35.471Z,46.48
2023-05-10T09:25:20.383Z,51.99
2023-05-10T09:28:05.260Z,51.51
2023-05-10T09:30:50.260Z,54.62
2023-05-10T09:33:35.138Z,54.64
2023-05-10T09:36:19.985Z,52.65
2023-05-10T09:39:04.978Z,51.38
2023-05-10T09:41:49.784Z,48.44
2023-05-10T09:44:34.643Z,47.59
2023-05-10T09:47:19.388Z,47.52
2023-05-10T09:50:04.278Z,47.70
2023-05-10T09:52:49.085Z,44.64
2023-05-10T09:55:34.058Z,45.05
2023-05-10T09:58:18.872Z,42.24
2023-05-10T10:01:03.937Z,42.08
2023-05-10T10:03:48.831Z,41.97
2023-05-10T10:06:33.641Z,41.48
2023-05-10T10:09:18.530Z,39.94
2023-05-10T10:12:03.304Z,39.09
2023-05-10T10:14:49.180Z,41.04
2023-05-10T10:17:34.132Z,44.86
2023-05-10T10:20:19.154Z,42.92
2023-05-10T10:23:04.028Z,43.67
2023-05-10T10:25:48.803Z,39.38
2023-05-10T10:28:33.916Z,38.57
2023-05-10T10:31:18.742Z,46.05
2023-05-10T10:34:03.638Z,46.94
2023-05-10T10:36:48.456Z,43.59
2023-05-10T10:39:33.406Z,47.21
2023-05-10T10:42:18.284Z,40.63
2023-05-10T10:45:03.184Z,41.52
2023-05-10T10:47:48.185Z,41.41
2023-05-10T10:50:32.821Z,44.08
2023-05-10T10:53:17.865Z,40.72
2023-05-10T10:56:02.685Z,42.04
2023-05-10T10:58:47.516Z,39.57
2023-05-10T11:01:32.354Z,43.46
2023-05-10T11:04:17.230Z,37.82
2023-05-10T11:07:01.958Z,37.66
2023-05-10T11:09:46.949Z,40.47
2023-05-10T11:12:31.893Z,41.45
2023-05-10T11:15:17.121Z,40.09
2023-05-10T11:18:02.292Z,40.53
2023-05-10T11:20:47.010Z,41.68
2023-05-10T11:23:31.933Z,41.37
2023-05-10T11:26:16.661Z,43.19
2023-05-10T11:29:01.566Z,43.52
2023-05-10T11:31:46.435Z,45.51
2023-05-10T11:34:31.387Z,43.91
2023-05-10T11:37:16.261Z,41.38
2023-05-10T11:40:01.107Z,42.94
2023-05-10T11:42:45.880Z,39.84
2023-05-10T11:45:30.740Z,45.38
2023-05-10T11:48:15.838Z,41.97
2023-05-10T11:51:00.538Z,40.56
2023-05-10T11:53:45.453Z,47.57
2023-05-10T11:56:30.312Z,43.66
2023-05-10T11:59:15.211Z,45.05
2023-05-10T12:02:00.068Z,45.35
2023-05-10T12:04:44.931Z,43.31
2023-05-10T12:07:29.839Z,43.86
2023-05-10T12:10:14.682Z,44.76
2023-05-10T12:12:59.686Z,43.25
2023-05-10T12:15:44.677Z,43.02
2023-05-10T12:18:29.648Z,46.01
2023-05-10T12:21:14.444Z,43.33
2023-05-10T12:23:59.268Z,42.40
2023-05-10T12:26:44.173Z,41.51
2023-05-10T12:29:29.069Z,41.82
2023-05-10T12:32:14.165Z,42.74
2023-05-10T12:34:58.791Z,42.07
2023-05-10T12:37:43.751Z,42.63
2023-05-10T12:40:28.634Z,44.29
2023-05-10T12:43:13.497Z,42.36
2023-05-10T12:45:58.401Z,41.53
2023-05-10T12:48:43.138Z,39.66
2023-05-10T12:51:28.056Z,40.94
2023-05-10T12:54:13.001Z,39.86
2023-05-10T12:56:57.860Z,42.23
2023-05-10T12:59:42.622Z,42.70
2023-05-10T13:02:27.649Z,39.95
2023-05-10T13:05:12.353Z,41.36
2023-05-10T13:07:57.164Z,39.54
2023-05-10T13:10:41.946Z,38.89
2023-05-10T13:13:26.857Z,39.96
2023-05-10T13:16:11.611Z,40.12
2023-05-10T13:18:56.541Z,40.10
2023-05-10T13:21:41.538Z,39.45
2023-05-10T13:24:26.451Z,39.13
2023-05-10T13:27:11.350Z,40.25
2023-05-10T13:29:56.062Z,39.54
2023-05-10T13:32:40.996Z,38.79
2023-05-10T13:35:25.691Z,38.37
2023-05-10T13:38:10.501Z,38.59
2023-05-10T13:40:55.253Z,38.73
2023-05-10T13:43:40.206Z,38.56
2023-05-10T13:46:25.176Z,39.75
2023-05-10T13:49:09.988Z,37.22
2023-05-10T13:51:54.949Z,37.60
2023-05-10T13:54:39.634Z,34.92
2023-05-10T13:57:24.624Z,36.79
2023-05-10T14:00:09.532Z,36.96
2023-05-10T14:02:54.505Z,38.88
2023-05-10T14:05:39.192Z,36.21
2023-05-10T14:08:24.068Z,36.65
2023-05-10T14:11:08.866Z,35.42
2023-05-10T14:13:53.830Z,36.03
2023-05-10T14:16:38.863Z,36.93
2023-05-10T14:19:23.620Z,35.76
2023-05-10T14:22:08.725Z,35.21
2023-05-10T14:24:53.364Z,35.65
2023-05-10T14:27:38.175Z,36.63
2023-05-10T14:30:22.957Z,37.37
2023-05-10T14:33:07.782Z,38.40
2023-05-10T14:35:52.597Z,36.92
2023-05-10T14:38:37.466Z,34.97
2023-05-10T14:41:22.388Z,35.16
2023-05-10T14:44:07.152Z,37.94
2023-05-10T14:46:52.158Z,37.10
2023-05-10T14:49:36.971Z,36.31
2023-05-10T14:52:21.974Z,37.47
2023-05-10T14:55:06.896Z,38.37
2023-05-10T14:57:51.679Z,37.43
2023-05-10T15:00:36.489Z,35.33
2023-05-10T15:03:22.102Z,39.02
2023-05-10T15:06:07.254Z,38.61
2023-05-10T15:08:52.093Z,37.73
2023-05-10T15:11:36.896Z,37.01
2023-05-10T15:14:21.740Z,38.50
2023-05-10T15:17:06.478Z,39.88
2023-05-10T15:19:51.373Z,39.19
2023-05-10T15:22:36.236Z,37.78
2023-05-10T15:25:20.900Z,38.13
2023-05-10T15:28:05.820Z,38.65
2023-05-10T15:30:50.746Z,37.32
2023-05-10T15:33:35.692Z,38.81
2023-05-10T15:36:20.557Z,38.17
2023-05-10T15:39:05.504Z,37.94
2023-05-10T15:41:50.458Z,39.90
2023-05-10T15:44:35.234Z,38.95
2023-05-10T15:47:20.037Z,40.23
2023-05-10T15:50:04.877Z,38.76
2023-05-10T15:52:49.768Z,39.35
2023-05-10T15:55:34.681Z,38.85
2023-05-10T15:58:19.480Z,40.62
2023-05-10T16:01:04.485Z,40.84
2023-05-10T16:03:49.426Z,43.94
2023-05-10T16:06:34.301Z,43.22
2023-05-10T16:09:19.072Z,44.67
2023-05-10T16:12:03.992Z,44.43
2023-05-10T16:14:48.770Z,43.43
2023-05-10T16:17:33.724Z,42.95
2023-05-10T16:20:18.580Z,41.45
2023-05-10T16:23:03.362Z,44.80
2023-05-10T16:25:48.444Z,42.27
2023-05-10T16:28:33.289Z,43.80
2023-05-10T16:31:18.250Z,43.00
2023-05-10T16:34:02.969Z,41.16
2023-05-10T16:36:47.965Z,41.11
2023-05-10T16:39:32.740Z,38.04
2023-05-10T16:42:17.749Z,39.21
2023-05-10T16:45:02.758Z,41.71
2023-05-10T16:47:47.671Z,39.23
2023-05-10T16:50:32.505Z,39.39
2023-05-10T16:53:17.315Z,38.50
2023-05-10T16:56:02.308Z,38.24
2023-05-10T16:58:47.073Z,38.19
2023-05-10T17:01:32.115Z,37.23
2023-05-10T17:04:17.006Z,38.45
2023-05-10T17:07:01.905Z,37.86
2023-05-10T17:09:46.587Z,37.10
2023-05-10T17:12:31.443Z,38.56
2023-05-10T17:15:16.782Z,38.24
2023-05-10T17:18:01.682Z,37.94
2023-05-10T17:20:46.619Z,37.70
2023-05-10T17:23:31.498Z,37.37
2023-05-10T17:26:16.409Z,39.07
2023-05-10T17:29:01.245Z,38.13
2023-05-10T17:31:46.212Z,37.94
2023-05-10T17:34:30.983Z,38.26
2023-05-10T17:37:15.841Z,38.96
2023-05-10T17:40:00.807Z,39.99
2023-05-10T17:42:45.680Z,38.86
2023-05-10T17:45:30.657Z,40.04
2023-05-10T17:48:15.386Z,37.39
2023-05-10T17:51:00.346Z,39.15
2023-05-10T17:53:45.080Z,40.02
2023-05-10T17:56:30.047Z,40.00
2023-05-10T17:59:14.814Z,40.08
2023-05-10T18:01:59.799Z,40.70
2023-05-10T18:04:44.915Z,39.37
2023-05-10T18:07:29.626Z,39.00
2023-05-10T18:10:14.667Z,39.87
2023-05-10T18:12:59.570Z,40.86
2023-05-10T18:15:44.533Z,41.39
2023-05-10T18:18:29.549Z,42.27
2023-05-10T18:21:14.482Z,40.70
2023-05-10T18:23:59.381Z,41.20
2023-05-10T18:26:44.254Z,40.71
2023-05-10T18:29:29.130Z,38.96
2023-05-10T18:32:13.966Z,39.59
2023-05-10T18:34:58.938Z,40.51
2023-05-10T18:37:43.632Z,40.73
2023-05-10T18:40:28.564Z,42.27
2023-05-10T18:43:13.320Z,44.71
2023-05-10T18:45:58.259Z,47.68
2023-05-10T18:48:43.024Z,47.81
2023-05-10T18:51:27.913Z,48.64
2023-05-10T18:54:12.782Z,47.76
2023-05-10T18:56:57.725Z,48.33
2023-05-10T18:59:42.625Z,47.97
2023-05-10T19:02:27.587Z,48.23
2023-05-10T19:05:12.409Z,49.15
2023-05-10T19:07:57.257Z,48.38
2023-05-10T19:10:42.028Z,50.33
2023-05-10T19:13:26.857Z,50.35
2023-05-10T19:16:13.017Z,52.76
2023-05-10T19:18:58.268Z,56.06
2023-05-10T19:21:43.468Z,56.28
2023-05-10T19:24:28.686Z,56.42
2023-05-10T19:27:13.256Z,54.29
2023-05-10T19:29:58.146Z,53.26
2023-05-10T19:32:43.025Z,53.77
2023-05-10T19:35:27.613Z,53.14
2023-05-10T19:38:12.415Z,52.56
2023-05-10T19:40:57.389Z,52.51
2023-05-10T19:43:42.207Z,52.47
2023-05-10T19:46:27.140Z,52.07
2023-05-10T19:49:11.983Z,51.92
2023-05-10T19:51:56.882Z,51.48
2023-05-10T19:54:41.834Z,51.64
2023-05-10T19:57:26.707Z,51.88
2023-05-10T20:00:11.573Z,51.40
2023-05-10T20:02:56.504Z,50.50
2023-05-10T20:05:41.298Z,51.43
2023-05-10T20:08:26.183Z,54.74
2023-05-10T20:11:10.917Z,55.83
2023-05-10T20:13:55.893Z,54.54
2023-05-10T20:16:40.641Z,53.56
2023-05-10T20:19:25.907Z,55.39
2023-05-10T20:22:10.873Z,55.66
2023-05-10T20:24:56.337Z,54.19
2023-05-10T20:27:41.051Z,53.56
2023-05-10T20:30:25.967Z,53.37
2023-05-10T20:33:10.963Z,52.94
2023-05-10T20:35:55.736Z,52.90
2023-05-10T20:38:40.732Z,52.48
2023-05-10T20:41:25.621Z,52.03
2023-05-10T20:44:10.534Z,52.15
2023-05-10T20:46:55.376Z,52.16
2023-05-10T20:49:40.325Z,51.88
2023-05-10T20:52:25.284Z,51.79
2023-05-10T20:55:10.201Z,51.80
2023-05-10T20:57:55.118Z,53.36
